Live aus Altenrhein
LIVE
LSZR 291550Z 16004KT 9999 -RA BKN070 15/13 Q1004 NOSIG RMK P

People´s Info Center:

Öffnungszeiten Mo-Fr, 8-18 Uhr

 

info@peoples.ch

 
Aus Österreich:

T: +43 (0)5572 203 610

 

Aus CH / LI / DE:

T: +41 (0)71 858 51 60

 

Taxi- und Limousinenservice

St.Gallen-Altenrhein.

 

Wenn Sie mit dem Taxi anreisen oder abgeholt werden möchten, empfehlen wir Ihnen Brunner Taxi- und Limousinenservice. Das Unternehmen ist direkt am Flughafen in Altenrhein stationiert und ist daher ideal für Reisen mit dem Taxi oder der Limousine geeignet. Reservierungen können telefonisch über das Info-Center vorgenommen werden.

Brunner Taxi- und Limousinenservice.